createdAt,value
2023-05-12T00:00:13.907Z,6.22
2023-05-12T00:02:13.900Z,6.22
2023-05-12T00:03:13.934Z,6.06
2023-05-12T00:05:13.912Z,6.06
2023-05-12T00:06:13.874Z,6.22
2023-05-12T00:07:13.876Z,6.22
2023-05-12T00:08:13.883Z,6.39
2023-05-12T00:09:13.924Z,6.22
2023-05-12T00:11:13.933Z,6.22
2023-05-12T00:12:13.885Z,6.22
2023-05-12T00:13:13.904Z,6.22
2023-05-12T00:15:13.898Z,6.22
2023-05-12T00:17:13.904Z,6.22
2023-05-12T00:18:13.912Z,6.06
2023-05-12T00:20:13.900Z,6.39
2023-05-12T00:21:13.918Z,6.39
2023-05-12T00:22:13.883Z,6.5
2023-05-12T00:23:13.889Z,6.06
2023-05-12T00:24:13.898Z,6.39
2023-05-12T00:25:13.921Z,6.22
2023-05-12T00:27:13.895Z,6.06
2023-05-12T00:28:13.901Z,6.22
2023-05-12T00:29:13.918Z,6.22
2023-05-12T00:31:13.967Z,6.22
2023-05-12T00:32:13.901Z,6.39
2023-05-12T00:33:13.905Z,6.39
2023-05-12T00:35:13.897Z,6.22
2023-05-12T00:36:13.907Z,6.22
2023-05-12T00:37:13.983Z,6.06
2023-05-12T00:39:13.907Z,6.22
2023-05-12T00:40:13.906Z,6.22
2023-05-12T00:42:13.934Z,6.39
2023-05-12T00:43:13.915Z,6.22
2023-05-12T00:45:13.918Z,6.06
2023-05-12T00:46:13.969Z,6.06
2023-05-12T00:48:13.922Z,5.67
2023-05-12T00:49:13.915Z,6.22
2023-05-12T00:50:13.923Z,6.22
2023-05-12T00:52:13.967Z,6.06
2023-05-12T00:53:13.935Z,6.06
2023-05-12T00:54:13.929Z,6.22
2023-05-12T00:55:13.907Z,6.22
2023-05-12T00:56:13.929Z,6.06
2023-05-12T00:58:13.928Z,6.5
2023-05-12T00:59:13.911Z,6.39
2023-05-12T01:00:13.930Z,6.06
2023-05-12T01:01:13.957Z,6.22
2023-05-12T01:02:13.942Z,6.22
2023-05-12T01:03:14.098Z,6.39
2023-05-12T01:04:13.913Z,6.22
2023-05-12T01:05:13.928Z,6.22
2023-05-12T01:07:13.934Z,6.22
2023-05-12T01:08:13.955Z,6.39
2023-05-12T01:09:13.962Z,6.22
2023-05-12T01:11:13.955Z,6.5
2023-05-12T01:12:13.946Z,6.39
2023-05-12T01:14:13.959Z,6.39
2023-05-12T01:15:13.962Z,6.06
2023-05-12T01:16:13.935Z,6.39
2023-05-12T01:17:13.972Z,6.5
2023-05-12T01:18:13.994Z,6.39
2023-05-12T01:20:13.966Z,6.22
2023-05-12T01:21:13.943Z,6.5
2023-05-12T01:22:13.955Z,6.39
2023-05-12T01:23:13.948Z,6.67
2023-05-12T01:24:13.948Z,6.39
2023-05-12T01:25:13.973Z,6.06
2023-05-12T01:27:13.979Z,6.67
2023-05-12T01:28:13.964Z,6.39
2023-05-12T01:30:13.959Z,6.5
2023-05-12T01:32:13.961Z,6.39
2023-05-12T01:33:13.961Z,6.39
2023-05-12T01:34:13.951Z,6.5
2023-05-12T01:35:13.963Z,6.39
2023-05-12T01:37:13.966Z,6.39
2023-05-12T01:38:13.979Z,6.22
2023-05-12T01:39:13.954Z,6.22
2023-05-12T01:40:13.970Z,6.39
2023-05-12T01:41:13.988Z,6.22
2023-05-12T01:43:13.988Z,6.39
2023-05-12T01:44:13.966Z,6.22
2023-05-12T01:46:13.979Z,6.22
2023-05-12T01:47:13.984Z,6.22
2023-05-12T01:48:13.973Z,6.5
2023-05-12T01:49:14.001Z,6.39
2023-05-12T01:51:13.981Z,6.39
2023-05-12T01:52:13.967Z,6.39
2023-05-12T01:53:13.995Z,6.5
2023-05-12T01:55:13.991Z,6.22
2023-05-12T01:56:13.963Z,6.06
2023-05-12T01:57:14.020Z,6.5
2023-05-12T01:59:13.996Z,6.22
2023-05-12T02:01:14.001Z,6.22
2023-05-12T02:02:14.054Z,6.5
2023-05-12T02:03:14.110Z,6.39
2023-05-12T02:05:13.979Z,6.67
2023-05-12T02:06:13.985Z,6.39
2023-05-12T02:08:13.986Z,6.39
2023-05-12T02:09:13.991Z,6.39
2023-05-12T02:11:13.992Z,6.67
2023-05-12T02:12:14.030Z,6.5
2023-05-12T02:14:14.005Z,6.5
2023-05-12T02:15:14.044Z,6.67
2023-05-12T02:17:14.030Z,6.5
2023-05-12T02:18:13.982Z,6.22
2023-05-12T02:19:13.992Z,6.22
2023-05-12T02:20:14.007Z,6.5
2023-05-12T02:21:13.987Z,6.67
2023-05-12T02:22:13.996Z,6.67
2023-05-12T02:24:14.958Z,6.67
2023-05-12T02:25:14.008Z,6.5
2023-05-12T02:26:14.077Z,6.67
2023-05-12T02:28:14.005Z,6.39
2023-05-12T02:29:14.028Z,6.67
2023-05-12T02:31:13.999Z,6.39
2023-05-12T02:32:14.056Z,6.39
2023-05-12T02:33:14.009Z,6.39
2023-05-12T02:34:14.015Z,6.67
2023-05-12T02:36:13.997Z,6.67
2023-05-12T02:37:14.010Z,6.5
2023-05-12T02:38:14.010Z,6.67
2023-05-12T02:40:14.012Z,6.5
2023-05-12T02:41:14.034Z,6.5
2023-05-12T02:43:14.009Z,6.39
2023-05-12T02:44:14.013Z,6.67
2023-05-12T02:45:14.042Z,6.67
2023-05-12T02:46:14.075Z,6.67
2023-05-12T02:47:14.024Z,6.39
2023-05-12T02:48:14.016Z,6.67
2023-05-12T02:49:14.004Z,6.67
2023-05-12T02:50:14.014Z,6.5
2023-05-12T02:51:14.034Z,6.67
2023-05-12T02:52:14.028Z,6.39
2023-05-12T02:53:14.044Z,6.5
2023-05-12T02:54:14.023Z,6.39
2023-05-12T02:55:14.061Z,6.67
2023-05-12T02:57:14.016Z,6.67
2023-05-12T02:59:14.027Z,6.39
2023-05-12T03:01:14.080Z,6.67
2023-05-12T03:03:14.076Z,6.78
2023-05-12T03:05:14.030Z,6.22
2023-05-12T03:06:14.022Z,6.5
2023-05-12T03:07:14.030Z,6.78
2023-05-12T03:08:14.049Z,6.67
2023-05-12T03:09:14.023Z,6.78
2023-05-12T03:10:14.061Z,6.67
2023-05-12T03:11:14.025Z,6.67
2023-05-12T03:12:14.047Z,6.67
2023-05-12T03:14:14.044Z,6.67
2023-05-12T03:15:14.084Z,6.67
2023-05-12T03:16:14.036Z,6.67
2023-05-12T03:17:14.109Z,6.78
2023-05-12T03:19:14.053Z,6.67
2023-05-12T03:20:14.055Z,6.78
2023-05-12T03:21:14.045Z,6.67
2023-05-12T03:22:14.089Z,6.67
2023-05-12T03:24:14.044Z,6.78
2023-05-12T03:25:14.026Z,6.78
2023-05-12T03:26:14.028Z,6.78
2023-05-12T03:27:14.045Z,6.78
2023-05-12T03:29:14.032Z,6.5
2023-05-12T03:31:14.043Z,6.5
2023-05-12T03:32:14.045Z,6.67
2023-05-12T03:33:14.050Z,6.67
2023-05-12T03:35:14.073Z,6.67
2023-05-12T03:36:14.023Z,6.5
2023-05-12T03:37:14.025Z,6.67
2023-05-12T03:38:14.053Z,6.67
2023-05-12T03:39:14.015Z,6.67
2023-05-12T03:40:14.042Z,6.67
2023-05-12T03:41:14.044Z,6.5
2023-05-12T03:42:14.052Z,6.39
2023-05-12T03:44:14.036Z,6.5
2023-05-12T03:45:14.028Z,6.67
2023-05-12T03:46:14.093Z,6.67
2023-05-12T03:47:14.131Z,6.5
2023-05-12T03:49:14.112Z,6.67
2023-05-12T03:51:14.030Z,6.67
2023-05-12T03:52:14.044Z,6.67
2023-05-12T03:53:14.026Z,6.67
2023-05-12T03:54:14.032Z,6.5
2023-05-12T03:55:14.038Z,6.67
2023-05-12T03:56:14.029Z,6.67
2023-05-12T03:57:14.041Z,6.5
2023-05-12T03:58:14.047Z,6.67
2023-05-12T03:59:14.056Z,6.5
2023-05-12T04:01:14.051Z,6.67
2023-05-12T04:02:14.111Z,6.67
2023-05-12T04:03:14.093Z,6.67
2023-05-12T04:04:14.056Z,6.67
2023-05-12T04:05:14.067Z,6.67
2023-05-12T04:06:14.032Z,6.5
2023-05-12T04:07:14.055Z,6.67
2023-05-12T04:09:14.066Z,6.5
2023-05-12T04:10:14.080Z,6.67
2023-05-12T04:12:14.068Z,6.5
2023-05-12T04:14:14.051Z,6.67
2023-05-12T04:15:14.049Z,6.67
2023-05-12T04:17:14.047Z,6.67
2023-05-12T04:18:14.060Z,6.5
2023-05-12T04:20:14.060Z,6.67
2023-05-12T04:21:14.086Z,6.67
2023-05-12T04:23:14.051Z,6.67
2023-05-12T04:24:14.051Z,6.67
2023-05-12T04:26:14.064Z,6.5
2023-05-12T04:27:14.070Z,6.78
2023-05-12T04:28:14.079Z,6.78
2023-05-12T04:30:14.054Z,6.78
2023-05-12T04:31:14.066Z,6.5
2023-05-12T04:32:14.093Z,6.94
2023-05-12T04:33:14.062Z,6.94
2023-05-12T04:34:14.062Z,6.94
2023-05-12T04:35:14.058Z,6.94
2023-05-12T04:36:14.063Z,7.11
2023-05-12T04:37:14.085Z,6.94
2023-05-12T04:38:14.053Z,6.78
2023-05-12T04:39:14.091Z,6.78
2023-05-12T04:40:14.087Z,6.5
2023-05-12T04:41:14.053Z,6.78
2023-05-12T04:42:14.076Z,7.11
2023-05-12T04:44:14.076Z,6.78
2023-05-12T04:45:14.059Z,7.11
2023-05-12T04:46:14.126Z,6.78
2023-05-12T04:47:14.108Z,7.11
2023-05-12T04:49:14.067Z,7.22
2023-05-12T04:50:14.084Z,7.11
2023-05-12T04:51:14.057Z,7.11
2023-05-12T04:52:14.067Z,7.11
2023-05-12T04:53:14.093Z,7.11
2023-05-12T04:54:14.053Z,7.11
2023-05-12T04:55:14.098Z,7.22
2023-05-12T04:56:14.058Z,7.11
2023-05-12T04:57:14.056Z,7.11
2023-05-12T04:58:14.086Z,7.22
2023-05-12T04:59:14.076Z,7.11
2023-05-12T05:00:14.085Z,7.11
2023-05-12T05:01:14.122Z,7.11
2023-05-12T05:02:14.091Z,7.39
2023-05-12T05:03:14.121Z,7.22
2023-05-12T05:04:14.076Z,7.39
2023-05-12T05:05:14.103Z,7.22
2023-05-12T05:06:14.071Z,7.39
2023-05-12T05:07:14.079Z,7.39
2023-05-12T05:08:14.085Z,7.22
2023-05-12T05:09:14.113Z,7.67
2023-05-12T05:11:14.109Z,7.5
2023-05-12T05:12:14.081Z,7.11
2023-05-12T05:13:14.086Z,7.39
2023-05-12T05:14:14.077Z,7.5
2023-05-12T05:15:14.097Z,7.5
2023-05-12T05:16:14.105Z,7.39
2023-05-12T05:17:14.096Z,7.67
2023-05-12T05:18:14.134Z,7.5
2023-05-12T05:19:20.612Z,7.5
2023-05-12T05:20:15.318Z,7.5
2023-05-12T05:21:14.133Z,7.5
2023-05-12T05:22:14.102Z,7.39
2023-05-12T05:23:14.091Z,7.5
2023-05-12T05:24:14.100Z,7.5
2023-05-12T05:25:14.134Z,7.39
2023-05-12T05:26:14.094Z,7.39
2023-05-12T05:27:14.109Z,7.5
2023-05-12T05:28:14.096Z,7.67
2023-05-12T05:29:14.115Z,7.78
2023-05-12T05:31:14.178Z,7.67
2023-05-12T05:33:14.127Z,7.39
2023-05-12T05:35:14.139Z,7.5
2023-05-12T05:37:14.123Z,7.67
2023-05-12T05:38:14.128Z,7.78
2023-05-12T05:40:14.133Z,7.5
2023-05-12T05:41:14.169Z,7.94
2023-05-12T05:43:14.131Z,7.67
2023-05-12T05:44:14.138Z,7.94
2023-05-12T05:45:14.127Z,7.78
2023-05-12T05:46:14.183Z,7.67
2023-05-12T05:48:14.144Z,7.94
2023-05-12T05:49:14.157Z,8.11
2023-05-12T05:51:14.159Z,8.39
2023-05-12T05:52:14.161Z,7.94
2023-05-12T05:53:14.162Z,8.39
2023-05-12T05:54:14.147Z,8.39
2023-05-12T05:55:14.175Z,8.5
2023-05-12T05:57:14.181Z,8.5
2023-05-12T05:59:14.171Z,8.5
2023-05-12T06:00:14.192Z,8.78
2023-05-12T06:01:14.165Z,8.61
2023-05-12T06:02:14.214Z,8.78
2023-05-12T06:03:14.283Z,8.61
2023-05-12T06:04:14.225Z,8.78
2023-05-12T06:05:14.494Z,8.61
2023-05-12T06:06:14.182Z,8.39
2023-05-12T06:07:14.174Z,8.78
2023-05-12T06:08:14.196Z,8.78
2023-05-12T06:09:14.172Z,9.06
2023-05-12T06:10:14.192Z,8.78
2023-05-12T06:11:15.335Z,9.06
2023-05-12T06:12:14.180Z,9.22
2023-05-12T06:13:14.245Z,9.06
2023-05-12T06:15:14.222Z,8.94
2023-05-12T06:16:14.212Z,9.06
2023-05-12T06:17:14.179Z,9.39
2023-05-12T06:18:14.200Z,9.06
2023-05-12T06:19:14.267Z,9.22
2023-05-12T06:20:14.196Z,9.5
2023-05-12T06:21:14.198Z,9.67
2023-05-12T06:23:14.213Z,9.22
2023-05-12T06:24:14.194Z,9.5
2023-05-12T06:25:14.219Z,9.67
2023-05-12T06:26:14.205Z,9.94
2023-05-12T06:27:14.212Z,10.11
2023-05-12T06:28:14.220Z,9.94
2023-05-12T06:29:14.230Z,9.94
2023-05-12T06:31:14.249Z,9.78
2023-05-12T06:32:14.323Z,10.11
2023-05-12T06:33:14.198Z,10.11
2023-05-12T06:34:14.209Z,10.11
2023-05-12T06:35:14.208Z,9.94
2023-05-12T06:36:14.217Z,10.11
2023-05-12T06:37:14.225Z,10.39
2023-05-12T06:38:14.228Z,10.22
2023-05-12T06:39:14.239Z,10.83
2023-05-12T06:40:14.229Z,11.44
2023-05-12T06:42:14.219Z,10.67
2023-05-12T06:43:14.254Z,10.67
2023-05-12T06:45:14.251Z,11
2023-05-12T06:46:14.251Z,11.72
2023-05-12T06:47:14.254Z,11.72
2023-05-12T06:48:14.224Z,11.61
2023-05-12T06:49:14.270Z,12.28
2023-05-12T06:51:14.239Z,11.28
2023-05-12T06:52:14.251Z,11.61
2023-05-12T06:53:14.246Z,11.94
2023-05-12T06:55:14.252Z,12.44
2023-05-12T06:56:14.252Z,12.11
2023-05-12T06:57:14.258Z,12.89
2023-05-12T06:59:14.307Z,14.06
2023-05-12T07:00:14.267Z,13.33
2023-05-12T07:01:14.485Z,13.78
2023-05-12T07:03:14.505Z,15.22
2023-05-12T07:05:14.266Z,16.67
2023-05-12T07:06:14.304Z,15.89
2023-05-12T07:07:14.303Z,15.39
2023-05-12T07:09:14.274Z,13.67
2023-05-12T07:11:14.264Z,14.89
2023-05-12T07:12:14.266Z,14.67
2023-05-12T07:13:14.266Z,13.78
2023-05-12T07:14:14.290Z,12.72
2023-05-12T07:16:14.364Z,13.17
2023-05-12T07:17:14.331Z,13.5
2023-05-12T07:19:14.323Z,12.72
2023-05-12T07:20:14.266Z,12.56
2023-05-12T07:21:14.268Z,13.17
2023-05-12T07:22:14.270Z,13.17
2023-05-12T07:23:14.304Z,13.06
2023-05-12T07:25:14.311Z,13.06
2023-05-12T07:26:14.287Z,14.06
2023-05-12T07:27:14.294Z,14.06
2023-05-12T07:30:14.294Z,14.28
2023-05-12T07:31:14.311Z,14.56
2023-05-12T07:32:14.275Z,14.39
2023-05-12T07:33:14.332Z,13.67
2023-05-12T07:34:14.279Z,13.33
2023-05-12T07:35:14.307Z,13.17
2023-05-12T07:36:14.294Z,13.17
2023-05-12T07:37:14.300Z,13.67
2023-05-12T07:38:14.297Z,13.17
2023-05-12T07:39:14.299Z,13.33
2023-05-12T07:40:14.301Z,13.5
2023-05-12T07:42:14.322Z,13.5
2023-05-12T07:44:14.319Z,14.06
2023-05-12T07:46:14.322Z,14.06
2023-05-12T07:47:14.397Z,12.72
2023-05-12T07:48:14.325Z,12.72
2023-05-12T07:49:14.356Z,13.06
2023-05-12T07:51:14.322Z,14.39
2023-05-12T07:53:14.309Z,13.67
2023-05-12T07:54:14.313Z,13.67
2023-05-12T07:55:14.312Z,12.72
2023-05-12T07:56:14.323Z,12.28
2023-05-12T07:57:14.346Z,12.11
2023-05-12T07:58:14.307Z,11.72
2023-05-12T07:59:14.327Z,11.83
2023-05-12T08:00:14.321Z,12.28
2023-05-12T08:01:14.318Z,12.56
2023-05-12T08:04:14.535Z,13.5
2023-05-12T08:05:14.342Z,13.94
2023-05-12T08:07:14.351Z,14.39
2023-05-12T08:09:14.335Z,15.17
2023-05-12T08:11:14.324Z,14.06
2023-05-12T08:12:14.327Z,14.39
2023-05-12T08:13:14.322Z,14.56
2023-05-12T08:14:14.318Z,14.56
2023-05-12T08:15:14.350Z,13.94
2023-05-12T08:16:14.330Z,13.94
2023-05-12T08:18:14.356Z,13.5
2023-05-12T08:19:14.425Z,13.94
2023-05-12T08:20:14.333Z,13.94
2023-05-12T08:21:14.431Z,14.28
2023-05-12T08:22:14.325Z,14.39
2023-05-12T08:23:14.346Z,14.28
2023-05-12T08:24:14.344Z,14.39
2023-05-12T08:25:14.364Z,14.89
2023-05-12T08:26:14.330Z,15.39
2023-05-12T08:28:14.345Z,15.22
2023-05-12T08:29:14.336Z,15.39
2023-05-12T08:31:14.370Z,15.89
2023-05-12T08:33:14.333Z,15.89
2023-05-12T08:35:14.385Z,15.39
2023-05-12T08:36:14.336Z,15.89
2023-05-12T08:37:14.414Z,16.06
2023-05-12T08:39:14.332Z,14.78
2023-05-12T08:41:14.353Z,14.44
2023-05-12T08:42:14.330Z,14.44
2023-05-12T08:43:14.334Z,14.78
2023-05-12T08:44:14.368Z,14.78
2023-05-12T08:45:14.335Z,14.44
2023-05-12T08:46:14.420Z,14.61
2023-05-12T08:47:14.354Z,14.78
2023-05-12T08:48:14.371Z,14.28
2023-05-12T08:49:14.342Z,14.78
2023-05-12T08:50:14.344Z,14
2023-05-12T08:52:14.348Z,15.06
2023-05-12T08:53:14.392Z,14.61
2023-05-12T08:54:14.341Z,14.44
2023-05-12T08:55:14.352Z,14.44
2023-05-12T08:57:14.338Z,15.17
2023-05-12T08:58:14.355Z,15.44
2023-05-12T08:59:14.347Z,15.17
2023-05-12T09:01:14.440Z,15.17
2023-05-12T09:02:14.454Z,14.44
2023-05-12T09:03:14.409Z,14.89
2023-05-12T09:04:14.363Z,14.61
2023-05-12T09:05:14.355Z,14.89
2023-05-12T09:06:14.372Z,15.17
2023-05-12T09:07:14.358Z,14.89
2023-05-12T09:08:14.354Z,15.17
2023-05-12T09:09:14.376Z,14.44
2023-05-12T09:11:14.357Z,14.61
2023-05-12T09:12:15.111Z,13.56
2023-05-12T09:13:14.379Z,13.39
2023-05-12T09:14:14.359Z,14
2023-05-12T09:15:14.370Z,14.89
2023-05-12T09:16:14.389Z,15.17
2023-05-12T09:17:14.365Z,15.61
2023-05-12T09:18:14.385Z,16.06
2023-05-12T09:19:14.498Z,15.61
2023-05-12T09:20:24.045Z,15.89
2023-05-12T09:21:14.371Z,16.06
2023-05-12T09:23:14.387Z,15.61
2023-05-12T09:25:14.727Z,15.44
2023-05-12T09:27:14.394Z,15.61
2023-05-12T09:28:14.432Z,15.17
2023-05-12T09:29:21.182Z,15.17
2023-05-12T09:30:14.413Z,14.78
2023-05-12T09:31:14.773Z,14.28
2023-05-12T09:33:14.510Z,15.44
2023-05-12T09:35:14.404Z,13.83
2023-05-12T09:36:14.403Z,13.67
2023-05-12T09:37:15.418Z,13.83
2023-05-12T09:38:14.439Z,14.78
2023-05-12T09:40:14.422Z,15.06
2023-05-12T09:41:14.426Z,15.17
2023-05-12T09:43:15.625Z,15.61
2023-05-12T09:44:14.453Z,15.28
2023-05-12T09:45:14.425Z,15.28
2023-05-12T09:46:14.462Z,15.61
2023-05-12T09:47:14.415Z,15.78
2023-05-12T09:48:14.480Z,16.56
2023-05-12T09:49:14.443Z,16.06
2023-05-12T09:50:14.443Z,16.22
2023-05-12T09:51:14.426Z,16.06
2023-05-12T09:52:14.438Z,16.06
2023-05-12T09:53:14.439Z,15.17
2023-05-12T09:54:14.422Z,15.06
2023-05-12T09:56:14.441Z,14.61
2023-05-12T09:57:14.524Z,14.44
2023-05-12T09:58:14.436Z,13.83
2023-05-12T09:59:14.445Z,14.11
2023-05-12T10:01:22.430Z,15.61
2023-05-12T10:03:14.495Z,16.06
2023-05-12T10:04:14.459Z,15.78
2023-05-12T10:05:14.470Z,15.06
2023-05-12T10:06:14.440Z,15.61
2023-05-12T10:07:14.472Z,15.06
2023-05-12T10:08:14.440Z,15.44
2023-05-12T10:09:14.462Z,15.06
2023-05-12T10:10:14.440Z,15.17
2023-05-12T10:11:14.460Z,16.06
2023-05-12T10:12:14.457Z,15.89
2023-05-12T10:13:14.509Z,16.06
2023-05-12T10:15:14.459Z,14.61
2023-05-12T10:16:14.478Z,15.06
2023-05-12T10:17:14.458Z,14.61
2023-05-12T10:18:14.482Z,13.83
2023-05-12T10:19:14.466Z,13.83
2023-05-12T10:21:14.466Z,16.06
2023-05-12T10:22:14.453Z,15.61
2023-05-12T10:23:14.470Z,15.89
2023-05-12T10:24:14.466Z,15.06
2023-05-12T10:26:14.461Z,16.56
2023-05-12T10:27:14.485Z,16.56
2023-05-12T10:28:14.496Z,16.22
2023-05-12T10:29:14.537Z,16.39
2023-05-12T10:31:14.522Z,16.56
2023-05-12T10:32:14.473Z,16.22
2023-05-12T10:34:14.476Z,17
2023-05-12T10:35:14.491Z,17.17
2023-05-12T10:36:14.467Z,17.5
2023-05-12T10:37:14.467Z,16.72
2023-05-12T10:38:14.473Z,17.17
2023-05-12T10:39:14.471Z,17.17
2023-05-12T10:40:14.488Z,16.72
2023-05-12T10:42:14.471Z,16.44
2023-05-12T10:43:14.500Z,16.56
2023-05-12T10:44:14.487Z,16.72
2023-05-12T10:45:14.575Z,17.67
2023-05-12T10:47:14.601Z,17.5
2023-05-12T10:49:14.489Z,17.83
2023-05-12T10:50:14.521Z,18.33
2023-05-12T10:52:14.498Z,18.33
2023-05-12T10:53:14.506Z,18.33
2023-05-12T10:54:14.510Z,18.33
2023-05-12T10:55:14.505Z,18.33
2023-05-12T10:56:14.676Z,18.94
2023-05-12T10:57:17.787Z,19.11
2023-05-12T10:59:15.096Z,17.67
2023-05-12T11:00:14.834Z,16.28
2023-05-12T11:01:14.855Z,16.72
2023-05-12T11:03:15.516Z,16.72
2023-05-12T11:04:14.752Z,16.28
2023-05-12T11:05:14.661Z,16.11
2023-05-12T11:07:14.929Z,15.67
2023-05-12T11:08:15.432Z,14.83
2023-05-12T11:09:15.512Z,14.94
2023-05-12T11:11:15.397Z,14.94
2023-05-12T11:12:14.763Z,14.5
2023-05-12T11:13:14.520Z,14.94
2023-05-12T11:15:16.129Z,15.67
2023-05-12T11:16:14.542Z,15.5
2023-05-12T11:17:14.546Z,15.33
2023-05-12T11:18:14.604Z,14.94
2023-05-12T11:19:14.579Z,14.61
2023-05-12T11:20:14.538Z,14.33
2023-05-12T11:21:14.527Z,14.33
2023-05-12T11:22:14.529Z,14.5
2023-05-12T11:24:14.533Z,14.61
2023-05-12T11:25:14.529Z,14.06
2023-05-12T11:26:14.537Z,14.94
2023-05-12T11:28:14.532Z,15.5
2023-05-12T11:29:14.541Z,16.28
2023-05-12T11:30:14.574Z,16.28
2023-05-12T11:31:14.544Z,16.44
2023-05-12T11:32:14.562Z,16.28
2023-05-12T11:33:14.717Z,16.56
2023-05-12T11:35:14.545Z,17.06
2023-05-12T11:36:14.530Z,16.72
2023-05-12T11:37:14.544Z,15.67
2023-05-12T11:38:14.561Z,14.94
2023-05-12T11:39:14.546Z,14.94
2023-05-12T11:40:14.548Z,15.22
2023-05-12T11:41:14.544Z,15.94
2023-05-12T11:42:15.764Z,16.56
2023-05-12T11:44:14.554Z,17.83
2023-05-12T11:45:14.579Z,16.44
2023-05-12T11:47:14.549Z,15.22
2023-05-12T11:48:14.605Z,15.22
2023-05-12T11:49:14.684Z,15.5
2023-05-12T11:51:14.553Z,15.5
2023-05-12T11:52:14.575Z,16.72
2023-05-12T11:54:14.547Z,17.5
2023-05-12T11:55:14.551Z,17.67
2023-05-12T11:56:14.565Z,17.5
2023-05-12T11:57:14.569Z,16.72
2023-05-12T11:59:14.574Z,15.22
2023-05-12T12:01:14.558Z,15.33
2023-05-12T12:02:14.589Z,15.5
2023-05-12T12:03:15.030Z,15.5
2023-05-12T12:04:14.601Z,15.33
2023-05-12T12:05:14.623Z,15.5
2023-05-12T12:07:14.560Z,15.67
2023-05-12T12:08:14.558Z,15.94
2023-05-12T12:09:14.567Z,15.83
2023-05-12T12:10:14.594Z,15.5
2023-05-12T12:12:14.584Z,15.5
2023-05-12T12:13:14.565Z,15.67
2023-05-12T12:14:14.579Z,16.28
2023-05-12T12:15:14.592Z,16.44
2023-05-12T12:16:15.039Z,16.28
2023-05-12T12:17:14.593Z,16.72
2023-05-12T12:18:14.604Z,16.28
2023-05-12T12:20:14.572Z,15.33
2023-05-12T12:21:14.664Z,15.83
2023-05-12T12:23:14.583Z,15.22
2023-05-12T12:24:14.582Z,15.67
2023-05-12T12:26:14.604Z,15.94
2023-05-12T12:27:14.583Z,16.72
2023-05-12T12:28:14.567Z,16.28
2023-05-12T12:29:14.582Z,15.83
2023-05-12T12:31:14.612Z,15.83
2023-05-12T12:33:14.670Z,15.94
2023-05-12T12:35:14.593Z,16.11
2023-05-12T12:36:14.593Z,15.94
2023-05-12T12:37:14.646Z,15.83
2023-05-12T12:39:14.584Z,14.61
2023-05-12T12:40:14.602Z,14.94
2023-05-12T12:42:14.588Z,15.83
2023-05-12T12:43:14.617Z,15.83
2023-05-12T12:44:14.584Z,15.11
2023-05-12T12:45:14.589Z,15.33
2023-05-12T12:47:14.650Z,15.67
2023-05-12T12:48:14.600Z,15.67
2023-05-12T12:49:14.583Z,16.11
2023-05-12T12:50:14.615Z,16.28
2023-05-12T12:51:14.582Z,16.72
2023-05-12T12:52:14.610Z,16.44
2023-05-12T12:53:14.619Z,16.89
2023-05-12T12:55:14.596Z,17.06
2023-05-12T12:56:14.609Z,17.83
2023-05-12T12:57:14.606Z,18.33
2023-05-12T12:59:14.602Z,18
2023-05-12T13:01:14.628Z,17.39
2023-05-12T13:02:14.633Z,16.72
2023-05-12T13:03:14.636Z,16.89
2023-05-12T13:04:14.604Z,16.72
2023-05-12T13:06:14.594Z,16.28
2023-05-12T13:07:14.600Z,16.28
2023-05-12T13:08:14.608Z,16.28
2023-05-12T13:09:14.624Z,16.56
2023-05-12T13:11:14.589Z,16.72
2023-05-12T13:12:14.624Z,16.89
2023-05-12T13:13:14.612Z,16.72
2023-05-12T13:14:14.610Z,16.44
2023-05-12T13:16:14.620Z,16.44
2023-05-12T13:17:14.609Z,16.56
2023-05-12T13:19:14.637Z,16.28
2023-05-12T13:21:14.612Z,16.44
2023-05-12T13:22:14.628Z,16.28
2023-05-12T13:23:14.607Z,15.83
2023-05-12T13:24:14.614Z,15.94
2023-05-12T13:25:14.620Z,16.28
2023-05-12T13:27:14.629Z,16.11
2023-05-12T13:28:14.615Z,16.11
2023-05-12T13:29:14.617Z,16.28
2023-05-12T13:30:14.686Z,15.94
2023-05-12T13:32:14.629Z,16.28
2023-05-12T13:33:14.651Z,17.06
2023-05-12T13:34:14.627Z,17.06
2023-05-12T13:36:14.615Z,16.89
2023-05-12T13:37:14.610Z,16.56
2023-05-12T13:39:14.614Z,16.72
2023-05-12T13:40:14.603Z,16.28
2023-05-12T13:41:14.649Z,17.22
2023-05-12T13:43:14.607Z,17.22
2023-05-12T13:44:14.613Z,16.72
2023-05-12T13:45:14.617Z,16.72
2023-05-12T13:46:14.641Z,16.89
2023-05-12T13:47:14.627Z,16.28
2023-05-12T13:49:14.619Z,16.56
2023-05-12T13:50:14.612Z,16.72
2023-05-12T13:51:14.613Z,16.56
2023-05-12T13:52:14.609Z,16.89
2023-05-12T13:54:14.607Z,16.28
2023-05-12T13:55:20.421Z,16.44
2023-05-12T13:56:14.660Z,16.56
2023-05-12T13:57:14.680Z,16.28
2023-05-12T13:59:14.622Z,16.28
2023-05-12T14:00:14.630Z,15.83
2023-05-12T14:01:14.640Z,16.28
2023-05-12T14:02:14.636Z,16.28
2023-05-12T14:04:14.616Z,15.83
2023-05-12T14:05:14.713Z,15.94
2023-05-12T14:06:14.625Z,16.28
2023-05-12T14:08:14.631Z,17.5
2023-05-12T14:10:14.635Z,17.06
2023-05-12T14:11:14.640Z,18.17
2023-05-12T14:13:14.682Z,17.83
2023-05-12T14:15:26.459Z,17.39
2023-05-12T14:16:14.694Z,16.89
2023-05-12T14:17:14.648Z,16.56
2023-05-12T14:18:14.918Z,17.06
2023-05-12T14:20:14.649Z,17.83
2023-05-12T14:21:14.632Z,18.67
2023-05-12T14:22:25.260Z,18.17
2023-05-12T14:23:14.638Z,17.5
2023-05-12T14:24:14.654Z,17.22
2023-05-12T14:25:14.649Z,18.17
2023-05-12T14:26:14.680Z,17.39
2023-05-12T14:27:14.688Z,16.5
2023-05-12T14:29:14.686Z,17.22
2023-05-12T14:31:14.656Z,17.22
2023-05-12T14:32:14.652Z,16.28
2023-05-12T14:33:14.699Z,17.22
2023-05-12T14:34:14.652Z,17.5
2023-05-12T14:36:14.666Z,17.39
2023-05-12T14:37:14.655Z,17.67
2023-05-12T14:38:14.647Z,17.39
2023-05-12T14:39:14.659Z,17.83
2023-05-12T14:40:14.650Z,17.83
2023-05-12T14:41:14.657Z,17.67
2023-05-12T14:42:14.692Z,17.22
2023-05-12T14:43:14.681Z,17.67
2023-05-12T14:44:14.658Z,17.22
2023-05-12T14:45:14.711Z,17.22
2023-05-12T14:46:14.750Z,17.39
2023-05-12T14:48:14.702Z,17.06
2023-05-12T14:49:14.695Z,16.72
2023-05-12T14:50:14.675Z,17.5
2023-05-12T14:51:14.679Z,17.39
2023-05-12T14:52:14.710Z,17.06
2023-05-12T14:53:14.693Z,16.28
2023-05-12T14:54:24.630Z,16.11
2023-05-12T14:56:14.687Z,16.44
2023-05-12T14:58:14.729Z,16.11
2023-05-12T14:59:14.696Z,16.56
2023-05-12T15:00:14.712Z,16.28
2023-05-12T15:01:14.779Z,16.28
2023-05-12T15:03:14.747Z,16.11
2023-05-12T15:04:14.704Z,15.83
2023-05-12T15:05:14.699Z,16.28
2023-05-12T15:06:16.501Z,16.44
2023-05-12T15:07:14.700Z,16.89
2023-05-12T15:08:14.717Z,17.22
2023-05-12T15:10:14.703Z,18
2023-05-12T15:12:14.703Z,17.22
2023-05-12T15:14:14.725Z,15.5
2023-05-12T15:15:14.739Z,15.22
2023-05-12T15:17:14.756Z,14.94
2023-05-12T15:19:14.771Z,14.83
2023-05-12T15:20:14.704Z,14.83
2023-05-12T15:21:14.732Z,14.83
2023-05-12T15:22:14.721Z,14.94
2023-05-12T15:24:14.767Z,14.94
2023-05-12T15:26:31.769Z,14.5
2023-05-12T15:28:14.721Z,14.5
2023-05-12T15:29:14.735Z,14.94
2023-05-12T15:31:14.771Z,14.83
2023-05-12T15:32:14.728Z,14.33
2023-05-12T15:33:14.784Z,14.61
2023-05-12T15:34:14.781Z,14.5
2023-05-12T15:35:14.725Z,14.5
2023-05-12T15:36:14.739Z,14.5
2023-05-12T15:38:14.732Z,14.61
2023-05-12T15:39:14.750Z,14.61
2023-05-12T15:40:14.739Z,14.33
2023-05-12T15:41:14.749Z,14.5
2023-05-12T15:43:14.760Z,14.33
2023-05-12T15:44:14.731Z,14.06
2023-05-12T15:45:14.789Z,14.06
2023-05-12T15:46:14.824Z,14.06
2023-05-12T15:47:14.744Z,14.06
2023-05-12T15:48:14.797Z,14.06
2023-05-12T15:49:14.785Z,13.89
2023-05-12T15:50:14.743Z,13.72
2023-05-12T15:51:14.745Z,13.56
2023-05-12T15:52:14.755Z,14.06
2023-05-12T15:54:14.752Z,13.56
2023-05-12T15:56:14.811Z,13.56
2023-05-12T15:58:14.776Z,13.56
2023-05-12T15:59:14.747Z,13.56
2023-05-12T16:00:14.784Z,13.17
2023-05-12T16:01:14.753Z,13.17
2023-05-12T16:02:14.833Z,12.67
2023-05-12T16:03:14.843Z,12.56
2023-05-12T16:04:14.773Z,12.22
2023-05-12T16:05:14.777Z,12.22
2023-05-12T16:06:14.763Z,11.83
2023-05-12T16:07:14.757Z,11.56
2023-05-12T16:08:14.773Z,11.67
2023-05-12T16:09:14.799Z,11.11
2023-05-12T16:11:14.836Z,11.83
2023-05-12T16:13:14.765Z,11.94
2023-05-12T16:14:14.773Z,12.11
2023-05-12T16:16:14.813Z,12.39
2023-05-12T16:17:14.996Z,12.22
2023-05-12T16:19:14.774Z,12.11
2023-05-12T16:21:14.790Z,12.22
2023-05-12T16:23:14.791Z,12.22
2023-05-12T16:25:14.771Z,12.22
2023-05-12T16:27:14.762Z,12.11
2023-05-12T16:28:14.783Z,12.22
2023-05-12T16:29:14.760Z,12.11
2023-05-12T16:30:14.978Z,12.22
2023-05-12T16:31:14.778Z,12.22
2023-05-12T16:32:14.820Z,12.22
2023-05-12T16:33:14.866Z,12.22
2023-05-12T16:35:14.771Z,12.39
2023-05-12T16:36:15.385Z,12.22